createdAt,value
2019-01-02T00:02:31.132Z,5.40
2019-01-02T00:05:12.565Z,5.40
2019-01-02T00:07:53.934Z,5.40
2019-01-02T00:10:35.174Z,5.40
2019-01-02T00:13:15.846Z,5.40
2019-01-02T00:15:55.306Z,5.40
2019-01-02T00:18:43.850Z,5.30
2019-01-02T00:21:25.065Z,5.30
2019-01-02T00:24:05.964Z,5.20
2019-01-02T00:26:47.580Z,5.20
2019-01-02T00:29:28.962Z,5.20
2019-01-02T00:32:09.789Z,5.10
2019-01-02T00:34:51.336Z,5.20
2019-01-02T00:37:32.376Z,5.20
2019-01-02T00:40:13.562Z,5.30
2019-01-02T00:42:55.120Z,5.20
2019-01-02T00:45:36.533Z,5.20
2019-01-02T00:48:18.142Z,5.10
2019-01-02T00:50:59.561Z,5.10
2019-01-02T00:53:40.936Z,5.00
2019-01-02T00:56:21.355Z,5.00
2019-01-02T00:59:03.013Z,4.90
2019-01-02T01:01:43.623Z,4.90
2019-01-02T01:04:25.205Z,4.80
2019-01-02T01:07:06.194Z,4.70
2019-01-02T01:09:47.587Z,4.70
2019-01-02T01:12:29.115Z,4.70
2019-01-02T01:15:10.330Z,4.70
2019-01-02T01:17:51.588Z,4.60
2019-01-02T01:23:31.187Z,4.50
2019-01-02T01:26:10.606Z,4.60
2019-01-02T01:28:51.586Z,4.50
2019-01-02T01:31:32.104Z,4.50
2019-01-02T01:34:12.809Z,4.50
2019-01-02T01:36:53.728Z,4.60
2019-01-02T01:39:34.585Z,4.60
2019-01-02T01:42:16.003Z,4.70
2019-01-02T01:44:57.113Z,4.70
2019-01-02T01:47:37.985Z,4.70
2019-01-02T01:50:20.152Z,4.60
2019-01-02T01:53:01.028Z,4.70
2019-01-02T01:55:42.282Z,4.70
2019-01-02T01:58:23.252Z,4.70
2019-01-02T02:03:46.374Z,4.70
2019-01-02T02:06:27.036Z,4.60
2019-01-02T02:09:08.465Z,4.60
2019-01-02T02:11:50.224Z,4.60
2019-01-02T02:14:31.711Z,4.50
2019-01-02T02:17:01.418Z,4.50
2019-01-02T02:19:50.107Z,4.50
2019-01-02T02:22:20.046Z,4.50
2019-01-02T02:25:10.394Z,4.60
2019-01-02T02:27:58.745Z,4.60
2019-01-02T02:30:28.389Z,4.60
2019-01-02T02:32:57.710Z,4.60
2019-01-02T02:35:46.066Z,4.60
2019-01-02T02:38:34.771Z,4.60
2019-01-02T02:41:17.862Z,4.70
2019-01-02T02:43:59.039Z,4.80
2019-01-02T02:46:40.427Z,4.80
2019-01-02T02:49:21.167Z,4.80
2019-01-02T02:52:01.993Z,4.80
2019-01-02T02:54:43.493Z,4.80
2019-01-02T02:57:24.261Z,4.80
2019-01-02T03:00:05.239Z,4.80
2019-01-02T03:02:46.711Z,4.80
2019-01-02T03:05:28.108Z,4.80
2019-01-02T03:08:08.649Z,4.70
2019-01-02T03:10:49.579Z,4.80
2019-01-02T03:13:30.780Z,4.90
2019-01-02T03:16:12.682Z,4.90
2019-01-02T03:18:54.004Z,4.90
2019-01-02T03:21:35.781Z,5.00
2019-01-02T03:24:35.048Z,5.00
2019-01-02T03:27:06.571Z,5.10
2019-01-02T03:29:47.812Z,5.00
2019-01-02T03:32:28.551Z,5.00
2019-01-02T03:35:09.699Z,5.00
2019-01-02T03:37:50.759Z,5.00
2019-01-02T03:40:32.100Z,5.00
2019-01-02T03:43:12.738Z,5.00
2019-01-02T03:45:53.953Z,5.00
2019-01-02T03:48:34.727Z,5.00
2019-01-02T03:51:15.983Z,5.00
2019-01-02T03:53:57.109Z,5.10
2019-01-02T03:56:38.581Z,5.10
2019-01-02T03:59:20.030Z,5.00
2019-01-02T04:02:00.606Z,5.00
2019-01-02T04:04:41.145Z,5.00
2019-01-02T04:07:22.248Z,5.00
2019-01-02T04:10:03.550Z,5.00
2019-01-02T04:12:44.313Z,5.10
2019-01-02T04:15:25.669Z,5.10
2019-01-02T04:18:06.597Z,5.10
2019-01-02T04:20:47.542Z,5.00
2019-01-02T04:23:27.974Z,5.00
2019-01-02T04:26:08.997Z,5.00
2019-01-02T04:28:49.968Z,5.00
2019-01-02T04:31:31.254Z,5.10
2019-01-02T04:34:12.142Z,5.10
2019-01-02T04:36:52.863Z,5.00
2019-01-02T04:39:34.262Z,5.00
2019-01-02T04:42:14.775Z,5.00
2019-01-02T04:44:55.571Z,5.00
2019-01-02T04:47:36.610Z,4.90
2019-01-02T04:53:30.286Z,4.70
2019-01-02T04:56:11.656Z,4.80
2019-01-02T04:58:52.532Z,4.90
2019-01-02T05:01:33.090Z,4.80
2019-01-02T05:04:13.973Z,4.80
2019-01-02T05:06:54.728Z,4.70
2019-01-02T05:09:36.192Z,4.70
2019-01-02T05:12:17.302Z,4.70
2019-01-02T05:14:58.181Z,4.70
2019-01-02T05:17:39.045Z,4.60
2019-01-02T05:20:20.413Z,4.60
2019-01-02T05:23:01.521Z,4.70
2019-01-02T05:25:41.141Z,4.80
2019-01-02T05:28:29.475Z,4.70
2019-01-02T05:31:10.803Z,4.70
2019-01-02T05:33:52.163Z,4.70
2019-01-02T05:36:31.651Z,4.80
2019-01-02T05:39:19.917Z,4.80
2019-01-02T05:42:01.303Z,4.90
2019-01-02T05:47:24.691Z,5.00
2019-01-02T05:50:06.202Z,5.00
2019-01-02T05:52:47.607Z,5.10
2019-01-02T05:55:28.200Z,5.00
2019-01-02T05:58:09.625Z,5.00
2019-01-02T06:00:50.576Z,5.00
2019-01-02T06:03:32.083Z,5.00
2019-01-02T06:06:12.545Z,5.00
2019-01-02T06:08:53.440Z,5.00
2019-01-02T06:11:34.128Z,5.10
2019-01-02T06:14:15.243Z,5.20
2019-01-02T06:16:56.096Z,5.30
2019-01-02T06:19:37.491Z,5.30
2019-01-02T06:22:17.962Z,5.30
2019-01-02T06:24:58.578Z,5.30
2019-01-02T06:27:39.439Z,5.30
2019-01-02T06:30:20.583Z,5.30
2019-01-02T06:33:01.085Z,5.30
2019-01-02T06:35:41.752Z,5.40
2019-01-02T06:38:23.121Z,5.40
2019-01-02T06:40:52.713Z,5.50
2019-01-02T06:43:40.963Z,5.50
2019-01-02T06:46:29.305Z,5.50
2019-01-02T06:49:18.623Z,5.50
2019-01-02T06:52:02.120Z,5.50
2019-01-02T06:54:31.357Z,5.50
2019-01-02T06:57:19.629Z,5.40
2019-01-02T06:59:49.259Z,5.40
2019-01-02T07:02:37.589Z,5.30
2019-01-02T07:05:18.399Z,5.30
2019-01-02T07:07:59.887Z,5.30
2019-01-02T07:10:41.023Z,5.20
2019-01-02T07:13:21.988Z,5.20
2019-01-02T07:16:03.268Z,5.10
2019-01-02T07:18:44.352Z,5.10
2019-01-02T07:21:25.079Z,5.10
2019-01-02T07:24:06.190Z,5.10
2019-01-02T07:26:48.261Z,5.00
2019-01-02T07:29:29.434Z,5.00
2019-01-02T07:32:08.885Z,5.00
2019-01-02T07:34:49.532Z,5.00
2019-01-02T07:37:30.985Z,5.00
2019-01-02T07:40:11.733Z,4.90
2019-01-02T07:42:53.021Z,4.90
2019-01-02T07:45:33.930Z,4.90
2019-01-02T07:48:14.678Z,4.80
2019-01-02T07:51:00.205Z,4.70
2019-01-02T07:53:38.113Z,4.80
2019-01-02T07:56:19.597Z,4.70
2019-01-02T07:59:00.332Z,4.80
2019-01-02T08:01:40.924Z,4.80
2019-01-02T08:04:21.677Z,4.90
2019-01-02T08:07:02.238Z,4.90
2019-01-02T08:09:43.232Z,4.90
2019-01-02T08:12:24.035Z,5.00
2019-01-02T08:15:05.430Z,5.00
2019-01-02T08:17:46.352Z,5.00
2019-01-02T08:20:27.194Z,5.10
2019-01-02T08:23:08.094Z,5.10
2019-01-02T08:25:48.613Z,5.20
2019-01-02T08:28:30.191Z,5.20
2019-01-02T08:31:11.021Z,5.30
2019-01-02T08:33:51.691Z,5.30
2019-01-02T08:36:32.822Z,5.40
2019-01-02T08:42:15.329Z,5.20
2019-01-02T08:44:56.019Z,5.40
2019-01-02T08:47:37.351Z,5.40
2019-01-02T08:50:18.700Z,5.50
2019-01-02T08:52:59.242Z,5.40
2019-01-02T08:55:39.742Z,5.40
2019-01-02T08:58:20.542Z,5.40
2019-01-02T09:01:01.900Z,5.40
2019-01-02T09:03:44.199Z,5.40
2019-01-02T09:06:25.639Z,5.40
2019-01-02T09:09:06.119Z,5.40
2019-01-02T09:14:36.285Z,5.30
2019-01-02T09:19:59.351Z,5.30
2019-01-02T09:22:43.318Z,5.30
2019-01-02T09:25:29.978Z,5.40
2019-01-02T09:28:11.158Z,5.40
2019-01-02T09:30:52.558Z,5.40
2019-01-02T09:33:33.194Z,5.40
2019-01-02T09:40:02.323Z,5.50
2019-01-02T09:42:43.643Z,5.60
2019-01-02T09:45:24.938Z,5.60
2019-01-02T09:48:05.587Z,5.70
2019-01-02T09:50:46.910Z,5.70
2019-01-02T09:53:28.163Z,5.80
2019-01-02T09:56:09.240Z,5.80
2019-01-02T09:58:50.719Z,5.80
2019-01-02T10:01:32.294Z,5.90
2019-01-02T10:04:14.037Z,5.90
2019-01-02T10:06:55.496Z,5.90
2019-01-02T10:09:37.028Z,6.00
2019-01-02T10:12:17.691Z,6.00
2019-01-02T10:14:58.731Z,6.00
2019-01-02T10:17:40.163Z,6.10
2019-01-02T10:23:03.498Z,6.10
2019-01-02T10:25:44.780Z,6.10
2019-01-02T10:28:26.256Z,6.20
2019-01-02T10:31:08.031Z,6.20
2019-01-02T10:33:49.239Z,6.20
2019-01-02T10:36:30.560Z,6.20
2019-01-02T10:39:12.725Z,6.20
2019-01-02T10:41:54.145Z,6.30
2019-01-02T10:44:35.777Z,6.30
2019-01-02T10:47:16.419Z,6.30
2019-01-02T10:49:57.322Z,6.20
2019-01-02T10:52:38.069Z,6.30
2019-01-02T10:55:19.693Z,6.30
2019-01-02T10:58:01.075Z,6.40
2019-01-02T11:00:42.404Z,6.40
2019-01-02T11:03:23.861Z,6.40
2019-01-02T11:06:05.371Z,6.40
2019-01-02T11:08:46.759Z,6.40
2019-01-02T11:11:27.702Z,6.40
2019-01-02T11:14:08.250Z,6.40
2019-01-02T11:16:49.515Z,6.40
2019-01-02T11:19:57.529Z,6.40
2019-01-02T11:23:13.839Z,6.40
2019-01-02T11:26:21.390Z,6.40
2019-01-02T11:29:02.874Z,6.50
2019-01-02T11:31:44.407Z,6.50
2019-01-02T11:34:26.084Z,6.60
2019-01-02T11:37:06.695Z,6.60
2019-01-02T11:40:05.267Z,6.60
2019-01-02T11:43:03.811Z,6.60
2019-01-02T11:45:52.192Z,6.70
2019-01-02T11:48:33.396Z,6.70
2019-01-02T11:51:14.791Z,6.70
2019-01-02T11:53:55.765Z,6.70
2019-01-02T11:56:37.135Z,6.70
2019-01-02T11:59:18.579Z,6.70
2019-01-02T12:02:00.033Z,6.70
2019-01-02T12:04:40.662Z,6.70
2019-01-02T12:07:21.766Z,6.70
2019-01-02T12:10:03.174Z,6.70
2019-01-02T12:12:44.729Z,6.70
2019-01-02T12:15:25.406Z,6.70
2019-01-02T12:18:05.198Z,6.70
2019-01-02T12:20:53.747Z,6.70
2019-01-02T12:23:34.699Z,6.70
2019-01-02T12:26:16.137Z,6.70
2019-01-02T12:28:57.664Z,6.70
2019-01-02T12:31:39.211Z,6.70
2019-01-02T12:34:19.980Z,6.80
2019-01-02T12:37:01.083Z,6.80
2019-01-02T12:39:42.490Z,6.80
2019-01-02T12:42:23.961Z,6.80
2019-01-02T12:45:05.514Z,6.80
2019-01-02T12:47:35.264Z,6.80
2019-01-02T12:50:23.748Z,6.80
2019-01-02T12:53:05.264Z,6.90
2019-01-02T12:55:46.723Z,6.90
2019-01-02T12:58:27.358Z,6.90
2019-01-02T13:01:08.932Z,6.90
2019-01-02T13:03:50.636Z,6.90
2019-01-02T13:06:31.774Z,6.90
2019-01-02T13:09:13.228Z,7.00
2019-01-02T13:11:54.893Z,7.00
2019-01-02T13:14:36.505Z,7.00
2019-01-02T13:17:17.997Z,7.00
2019-01-02T13:19:59.824Z,7.00
2019-01-02T13:22:41.067Z,6.90
2019-01-02T13:25:22.718Z,7.00
2019-01-02T13:28:03.930Z,7.00
2019-01-02T13:30:44.568Z,7.00
2019-01-02T13:33:25.219Z,7.00
2019-01-02T13:36:06.762Z,7.00
2019-01-02T13:38:47.626Z,7.00
2019-01-02T13:41:28.671Z,7.00
2019-01-02T13:44:09.864Z,7.00
2019-01-02T13:46:51.007Z,6.90
2019-01-02T13:49:31.603Z,7.00
2019-01-02T13:52:11.214Z,6.90
2019-01-02T13:55:02.512Z,6.90
2019-01-02T13:57:43.288Z,6.80
2019-01-02T14:00:24.761Z,6.80
2019-01-02T14:03:05.892Z,6.70
2019-01-02T14:05:47.180Z,6.70
2019-01-02T14:08:28.758Z,6.70
2019-01-02T14:11:10.267Z,6.60
2019-01-02T14:13:50.966Z,6.60
2019-01-02T14:16:32.414Z,6.60
2019-01-02T14:19:13.906Z,6.60
2019-01-02T14:21:55.330Z,6.50
2019-01-02T14:24:37.045Z,6.50
2019-01-02T14:27:18.272Z,6.50
2019-01-02T14:29:59.968Z,6.50
2019-01-02T14:32:41.199Z,6.40
2019-01-02T14:35:22.995Z,6.50
2019-01-02T14:38:04.351Z,6.40
2019-01-02T14:40:45.638Z,6.40
2019-01-02T14:43:27.140Z,6.40
2019-01-02T14:46:08.696Z,6.40
2019-01-02T14:48:49.845Z,6.40
2019-01-02T14:51:31.265Z,6.50
2019-01-02T14:54:12.493Z,6.50
2019-01-02T14:56:53.218Z,6.40
2019-01-02T14:59:34.794Z,6.40
2019-01-02T15:02:16.490Z,6.40
2019-01-02T15:04:58.095Z,6.30
2019-01-02T15:07:37.771Z,6.30
2019-01-02T15:10:18.555Z,6.20
2019-01-02T15:12:59.989Z,6.20
2019-01-02T15:15:41.373Z,6.10
2019-01-02T15:18:22.503Z,6.10
2019-01-02T15:21:03.283Z,6.10
2019-01-02T15:23:44.677Z,6.00
2019-01-02T15:26:26.211Z,6.00
2019-01-02T15:29:06.945Z,5.90
2019-01-02T15:31:47.641Z,5.90
2019-01-02T15:34:28.491Z,5.90
2019-01-02T15:37:09.709Z,5.80
2019-01-02T15:39:50.227Z,5.80
2019-01-02T15:45:02.451Z,5.70
2019-01-02T15:47:50.914Z,5.60
2019-01-02T15:50:33.538Z,5.60
2019-01-02T15:55:56.954Z,5.50
2019-01-02T15:58:38.275Z,5.50
2019-01-02T16:01:19.781Z,5.50
2019-01-02T16:06:45.640Z,5.40
2019-01-02T16:12:08.816Z,5.30
2019-01-02T16:14:50.270Z,5.30
2019-01-02T16:17:30.992Z,5.20
2019-01-02T16:20:12.571Z,5.20
2019-01-02T16:22:52.055Z,5.10
2019-01-02T16:25:40.531Z,5.10
2019-01-02T16:28:21.993Z,5.00
2019-01-02T16:33:45.912Z,5.10
2019-01-02T16:39:09.355Z,5.00
2019-01-02T16:41:49.938Z,5.00
2019-01-02T16:44:31.426Z,5.00
2019-01-02T16:47:12.077Z,5.00
2019-01-02T16:49:53.719Z,5.00
2019-01-02T16:52:35.194Z,5.00
2019-01-02T16:55:15.995Z,5.00
2019-01-02T16:57:57.115Z,5.00
2019-01-02T17:00:40.509Z,5.00
2019-01-02T17:03:21.495Z,5.00
2019-01-02T17:06:02.269Z,5.00
2019-01-02T17:11:25.751Z,5.10
2019-01-02T17:14:06.540Z,5.10
2019-01-02T17:16:47.689Z,5.20
2019-01-02T17:19:28.982Z,5.20
2019-01-02T17:22:10.600Z,5.30
2019-01-02T17:24:52.171Z,5.30
2019-01-02T17:27:34.806Z,5.40
2019-01-02T17:30:16.095Z,5.40
2019-01-02T17:32:57.420Z,5.50
2019-01-02T17:35:38.838Z,5.50
2019-01-02T17:38:19.553Z,5.50
2019-01-02T17:41:00.853Z,5.50
2019-01-02T17:43:42.311Z,5.50
2019-01-02T17:46:23.678Z,5.50
2019-01-02T17:49:05.263Z,5.50
2019-01-02T17:51:47.009Z,5.50
2019-01-02T18:00:27.786Z,5.60
2019-01-02T18:03:09.228Z,5.40
2019-01-02T18:05:50.900Z,5.40
2019-01-02T18:08:31.752Z,5.40
2019-01-02T18:11:13.209Z,5.40
2019-01-02T18:13:55.835Z,5.40
2019-01-02T18:16:37.293Z,5.40
2019-01-02T18:19:18.813Z,5.40
2019-01-02T18:21:59.641Z,5.40
2019-01-02T18:24:41.737Z,5.40
2019-01-02T18:27:23.481Z,5.40
2019-01-02T18:32:46.762Z,5.30
2019-01-02T18:35:28.170Z,5.40
2019-01-02T18:38:09.854Z,5.30
2019-01-02T18:40:51.414Z,5.30
2019-01-02T18:43:32.288Z,5.30
2019-01-02T18:46:13.940Z,5.30
2019-01-02T18:48:55.499Z,5.40
2019-01-02T18:51:36.203Z,5.40
2019-01-02T18:54:17.855Z,5.40
2019-01-02T18:56:59.548Z,5.40
2019-01-02T18:59:41.189Z,5.40
2019-01-02T19:02:22.432Z,5.50
2019-01-02T19:05:03.844Z,5.50
2019-01-02T19:10:27.199Z,5.50
2019-01-02T19:13:08.773Z,5.50
2019-01-02T19:15:50.085Z,5.40
2019-01-02T19:18:31.732Z,5.40
2019-01-02T19:21:14.802Z,5.40
2019-01-02T19:23:55.695Z,5.40
2019-01-02T19:26:37.106Z,5.50
2019-01-02T19:29:18.317Z,5.50
2019-01-02T19:32:00.081Z,5.50
2019-01-02T19:34:41.343Z,5.50
2019-01-02T19:40:04.897Z,5.50
2019-01-02T19:42:46.546Z,5.50
2019-01-02T19:45:28.851Z,5.50
2019-01-02T19:48:10.669Z,5.50
2019-01-02T19:50:52.080Z,5.50
2019-01-02T19:53:33.417Z,5.40
2019-01-02T19:56:17.735Z,5.40
2019-01-02T20:02:11.420Z,5.40
2019-01-02T20:04:52.696Z,5.40
2019-01-02T20:07:34.479Z,5.40
2019-01-02T20:12:57.938Z,5.30
2019-01-02T20:15:40.089Z,5.30
2019-01-02T20:18:21.637Z,5.30
2019-01-02T20:21:02.781Z,5.30
2019-01-02T20:23:33.909Z,5.30
2019-01-02T20:26:22.981Z,5.30
2019-01-02T20:28:53.592Z,5.30
2019-01-02T20:31:42.637Z,5.30
2019-01-02T20:34:24.791Z,5.30
2019-01-02T20:37:05.908Z,5.30
2019-01-02T20:39:46.831Z,5.30
2019-01-02T20:42:28.124Z,5.30
2019-01-02T20:45:09.534Z,5.30
2019-01-02T20:47:51.088Z,5.30
2019-01-02T20:50:31.929Z,5.30
2019-01-02T20:53:13.278Z,5.30
2019-01-02T20:55:52.920Z,5.30
2019-01-02T20:58:41.427Z,5.30
2019-01-02T21:01:22.221Z,5.40
2019-01-02T21:04:03.233Z,5.30
2019-01-02T21:06:44.425Z,5.30
2019-01-02T21:09:25.760Z,5.30
2019-01-02T21:12:06.449Z,5.30
2019-01-02T21:14:48.715Z,5.20
2019-01-02T21:17:29.518Z,5.20
2019-01-02T21:20:10.832Z,5.20
2019-01-02T21:22:51.726Z,5.20
2019-01-02T21:25:32.440Z,5.20
2019-01-02T21:28:15.212Z,5.20
2019-01-02T21:30:56.284Z,5.20
2019-01-02T21:33:37.657Z,5.20
2019-01-02T21:36:18.644Z,5.20
2019-01-02T21:38:58.166Z,5.20
2019-01-02T21:41:47.089Z,5.20
2019-01-02T21:44:28.631Z,5.20
2019-01-02T21:47:10.092Z,5.10
2019-01-02T21:49:50.882Z,5.10
2019-01-02T21:52:30.547Z,5.10
2019-01-02T21:55:11.614Z,5.10
2019-01-02T21:57:52.380Z,5.10
2019-01-02T22:00:33.822Z,5.10
2019-01-02T22:06:00.588Z,5.10
2019-01-02T22:08:42.193Z,5.10
2019-01-02T22:11:23.622Z,5.10
2019-01-02T22:14:05.320Z,5.10
2019-01-02T22:16:46.159Z,5.00
2019-01-02T22:19:27.677Z,5.00
2019-01-02T22:22:09.951Z,5.00
2019-01-02T22:24:51.411Z,5.00
2019-01-02T22:27:32.613Z,5.00
2019-01-02T22:32:55.105Z,5.00
2019-01-02T22:35:36.672Z,5.00
2019-01-02T22:38:18.127Z,5.00
2019-01-02T22:40:59.369Z,5.00
2019-01-02T22:43:40.238Z,5.00
2019-01-02T22:46:21.431Z,5.00
2019-01-02T22:49:02.933Z,5.00
2019-01-02T22:51:44.003Z,5.00
2019-01-02T22:54:26.285Z,5.00
2019-01-02T22:59:49.810Z,5.00
2019-01-02T23:05:31.988Z,5.00
2019-01-02T23:11:17.535Z,5.00
2019-01-02T23:16:43.348Z,5.00
2019-01-02T23:22:14.657Z,5.00
2019-01-02T23:25:22.085Z,5.00
2019-01-02T23:28:20.574Z,4.90
2019-01-02T23:31:20.330Z,4.90
2019-01-02T23:37:21.780Z,4.90
2019-01-02T23:40:21.391Z,4.90
2019-01-02T23:43:21.199Z,4.90
2019-01-02T23:46:22.925Z,4.90
2019-01-02T23:49:23.286Z,4.90
2019-01-02T23:52:28.687Z,4.90
2019-01-02T23:55:31.492Z,4.90
2019-01-02T23:58:31.492Z,4.90
